createdAt,value
2022-11-04T00:01:28.051Z,100.00
2022-11-04T00:04:49.657Z,100.00
2022-11-04T00:08:26.507Z,100.00
2022-11-04T00:12:05.803Z,100.00
2022-11-04T00:15:45.439Z,100.00
2022-11-04T00:19:08.938Z,100.00
2022-11-04T00:22:48.320Z,100.00
2022-11-04T00:26:27.913Z,100.00
2022-11-04T00:29:50.010Z,100.00
2022-11-04T00:33:26.863Z,100.00
2022-11-04T00:36:50.135Z,100.00
2022-11-04T00:40:14.545Z,100.00
2022-11-04T00:43:36.349Z,100.00
2022-11-04T00:46:58.493Z,100.00
2022-11-04T00:50:20.665Z,100.00
2022-11-04T00:53:44.181Z,100.00
2022-11-04T00:57:06.147Z,100.00
2022-11-04T01:00:28.384Z,100.00
2022-11-04T01:03:51.861Z,100.00
2022-11-04T01:07:13.663Z,100.00
2022-11-04T01:10:44.701Z,100.00
2022-11-04T01:14:07.238Z,100.00
2022-11-04T01:17:29.001Z,100.00
2022-11-04T01:20:51.149Z,100.00
2022-11-04T01:24:12.834Z,100.00
2022-11-04T01:27:35.726Z,100.00
2022-11-04T01:30:57.644Z,100.00
2022-11-04T01:34:19.865Z,100.00
2022-11-04T01:37:41.898Z,100.00
2022-11-04T01:41:04.045Z,100.00
2022-11-04T01:44:50.144Z,100.00
2022-11-04T01:48:18.226Z,100.00
2022-11-04T01:51:43.582Z,100.00
2022-11-04T01:55:11.271Z,100.00
2022-11-04T01:58:36.402Z,100.00
2022-11-04T02:01:59.565Z,100.00
2022-11-04T02:05:22.539Z,100.00
2022-11-04T02:08:44.823Z,100.00
2022-11-04T02:12:24.504Z,100.00
2022-11-04T02:15:57.181Z,100.00
2022-11-04T02:19:40.296Z,100.00
2022-11-04T02:23:40.638Z,100.00
2022-11-04T02:27:32.002Z,100.00
2022-11-04T02:31:06.484Z,100.00
2022-11-04T02:34:39.263Z,100.00
2022-11-04T02:38:12.139Z,100.00
2022-11-04T02:41:41.704Z,100.00
2022-11-04T02:45:15.786Z,100.00
2022-11-04T02:48:45.893Z,100.00
2022-11-04T02:52:11.181Z,100.00
2022-11-04T02:55:39.706Z,100.00
2022-11-04T02:59:06.506Z,100.00
2022-11-04T03:02:39.158Z,100.00
2022-11-04T03:06:04.558Z,100.00
2022-11-04T03:09:29.069Z,100.00
2022-11-04T03:12:56.432Z,100.00
2022-11-04T03:16:22.017Z,100.00
2022-11-04T03:19:48.837Z,100.00
2022-11-04T03:23:12.993Z,100.00
2022-11-04T03:26:42.949Z,100.00
2022-11-04T03:30:10.436Z,100.00
2022-11-04T03:33:40.058Z,100.00
2022-11-04T03:37:02.734Z,100.00
2022-11-04T03:40:26.884Z,100.00
2022-11-04T03:43:49.139Z,100.00
2022-11-04T03:47:11.311Z,100.00
2022-11-04T03:50:35.945Z,100.00
2022-11-04T03:53:58.840Z,100.00
2022-11-04T03:57:39.668Z,100.00
2022-11-04T04:01:08.294Z,100.00
2022-11-04T04:04:32.304Z,100.00
2022-11-04T04:08:02.435Z,100.00
2022-11-04T04:11:36.083Z,100.00
2022-11-04T04:15:06.870Z,100.00
2022-11-04T04:18:35.749Z,100.00
2022-11-04T04:22:03.653Z,100.00
2022-11-04T04:25:46.086Z,100.00
2022-11-04T04:29:09.739Z,100.00
2022-11-04T04:32:39.521Z,100.00
2022-11-04T04:36:02.327Z,100.00
2022-11-04T04:39:44.435Z,100.00
2022-11-04T04:43:26.216Z,100.00
2022-11-04T04:46:51.154Z,100.00
2022-11-04T04:50:16.413Z,100.00
2022-11-04T04:53:38.417Z,100.00
2022-11-04T04:57:00.337Z,100.00
2022-11-04T05:00:22.642Z,100.00
2022-11-04T05:03:45.431Z,100.00
2022-11-04T05:07:10.153Z,100.00
2022-11-04T05:10:32.087Z,100.00
2022-11-04T05:13:54.439Z,100.00
2022-11-04T05:17:16.880Z,100.00
2022-11-04T05:20:40.499Z,100.00
2022-11-04T05:24:04.068Z,100.00
2022-11-04T05:27:25.889Z,100.00
2022-11-04T05:30:48.027Z,100.00
2022-11-04T05:34:11.618Z,100.00
2022-11-04T05:37:33.325Z,100.00
2022-11-04T05:40:58.930Z,100.00
2022-11-04T05:44:20.744Z,100.00
2022-11-04T05:47:42.310Z,100.00
2022-11-04T05:51:04.553Z,100.00
2022-11-04T05:54:26.760Z,100.00
2022-11-04T05:57:49.946Z,100.00
2022-11-04T06:01:24.969Z,100.00
2022-11-04T06:04:46.839Z,100.00
2022-11-04T06:08:09.009Z,100.00
2022-11-04T06:11:32.170Z,100.00
2022-11-04T06:14:56.225Z,100.00
2022-11-04T06:18:18.155Z,100.00
2022-11-04T06:21:40.143Z,100.00
2022-11-04T06:25:02.190Z,100.00
2022-11-04T06:28:24.399Z,100.00
2022-11-04T06:31:47.375Z,100.00
2022-11-04T06:35:10.173Z,100.00
2022-11-04T06:38:34.040Z,100.00
2022-11-04T06:41:57.998Z,100.00
2022-11-04T06:45:21.246Z,100.00
2022-11-04T06:48:44.232Z,100.00
2022-11-04T06:52:06.442Z,100.00
2022-11-04T06:55:28.287Z,100.00
2022-11-04T06:58:50.647Z,100.00
2022-11-04T07:02:13.231Z,100.00
2022-11-04T07:05:36.818Z,99.96
2022-11-04T07:09:00.657Z,100.00
2022-11-04T07:12:23.650Z,100.00
2022-11-04T07:15:45.457Z,99.85
2022-11-04T07:19:07.967Z,100.00
2022-11-04T07:22:31.100Z,100.00
2022-11-04T07:25:54.370Z,100.00
2022-11-04T07:29:15.975Z,100.00
2022-11-04T07:32:37.550Z,100.00
2022-11-04T07:35:59.166Z,100.00
2022-11-04T07:39:22.471Z,99.77
2022-11-04T07:42:44.168Z,99.73
2022-11-04T07:46:07.890Z,99.35
2022-11-04T07:49:29.901Z,99.24
2022-11-04T07:52:51.978Z,99.61
2022-11-04T07:56:16.173Z,99.52
2022-11-04T07:59:37.985Z,99.37
2022-11-04T08:02:59.603Z,99.35
2022-11-04T08:06:22.776Z,99.75
2022-11-04T08:09:44.951Z,99.66
2022-11-04T08:13:08.741Z,98.71
2022-11-04T08:16:34.260Z,98.50
2022-11-04T08:19:56.642Z,99.28
2022-11-04T08:23:19.671Z,99.44
2022-11-04T08:26:42.342Z,99.72
2022-11-04T08:30:06.678Z,99.56
2022-11-04T08:33:29.678Z,99.34
2022-11-04T08:36:53.301Z,99.63
2022-11-04T08:40:15.303Z,99.68
2022-11-04T08:43:37.926Z,99.46
2022-11-04T08:47:02.108Z,99.01
2022-11-04T08:51:25.520Z,98.32
2022-11-04T08:54:47.755Z,98.04
2022-11-04T08:58:35.079Z,96.66
2022-11-04T09:01:57.301Z,97.01
2022-11-04T09:05:47.504Z,96.52
2022-11-04T09:09:13.075Z,96.81
2022-11-04T09:12:59.892Z,97.04
2022-11-04T09:22:11.514Z,96.82
2022-11-04T09:26:35.554Z,96.79
2022-11-04T09:29:59.136Z,96.34
2022-11-04T09:33:21.094Z,96.65
2022-11-04T09:36:50.479Z,96.60
2022-11-04T09:46:00.434Z,95.64
2022-11-04T09:49:26.475Z,96.23
2022-11-04T09:52:52.611Z,96.24
2022-11-04T09:56:20.606Z,96.30
2022-11-04T09:59:47.701Z,95.38
2022-11-04T10:03:28.598Z,95.77
2022-11-04T10:07:07.742Z,94.63
2022-11-04T10:10:38.595Z,95.23
2022-11-04T10:14:19.603Z,94.86
2022-11-04T10:18:03.460Z,95.41
2022-11-04T10:21:38.730Z,95.02
2022-11-04T10:25:09.788Z,94.05
2022-11-04T10:28:36.633Z,93.18
2022-11-04T10:32:01.088Z,93.12
2022-11-04T10:35:31.793Z,93.02
2022-11-04T10:38:55.855Z,93.68
2022-11-04T10:42:22.866Z,93.20
2022-11-04T10:45:55.485Z,92.81
2022-11-04T10:50:21.943Z,92.61
2022-11-04T10:53:34.295Z,92.03
2022-11-04T10:56:57.922Z,91.65
2022-11-04T11:19:23.221Z,88.04
2022-11-04T11:22:47.494Z,88.66
2022-11-04T11:26:11.575Z,88.52
2022-11-04T11:29:40.559Z,88.36
2022-11-04T11:33:05.296Z,88.38
2022-11-04T11:36:31.597Z,87.75
2022-11-04T11:39:53.503Z,88.14
2022-11-04T11:43:24.522Z,87.87
2022-11-04T11:46:54.887Z,87.09
2022-11-04T11:50:19.345Z,87.44
2022-11-04T11:53:59.601Z,87.42
2022-11-04T11:57:33.550Z,87.12
2022-11-04T12:01:06.880Z,87.20
2022-11-04T12:12:45.887Z,86.46
2022-11-04T12:16:22.002Z,87.10
2022-11-04T12:19:53.371Z,87.60
2022-11-04T12:23:22.229Z,87.46
2022-11-04T12:26:54.150Z,87.35
2022-11-04T12:30:28.127Z,88.15
2022-11-04T12:34:05.054Z,87.43
2022-11-04T12:37:35.781Z,86.82
2022-11-04T12:44:59.993Z,87.03
2022-11-04T12:48:44.617Z,86.31
2022-11-04T12:52:21.441Z,86.55
2022-11-04T12:55:50.916Z,86.85
2022-11-04T12:59:37.022Z,86.07
2022-11-04T13:03:06.163Z,86.82
2022-11-04T13:06:34.767Z,85.83
2022-11-04T13:10:00.867Z,85.60
2022-11-04T14:14:52.331Z,86.94
2022-11-04T14:18:29.875Z,86.94
2022-11-04T14:22:08.193Z,87.06
2022-11-04T14:35:05.658Z,86.98
2022-11-04T14:38:31.145Z,86.87
2022-11-04T14:41:56.380Z,87.03
2022-11-04T14:45:22.637Z,87.24
2022-11-04T14:48:52.370Z,86.83
2022-11-04T14:52:18.537Z,86.12
2022-11-04T14:55:40.108Z,86.83
2022-11-04T14:59:03.410Z,86.60
2022-11-04T15:02:29.785Z,86.77
2022-11-04T15:05:54.326Z,86.56
2022-11-04T15:09:29.834Z,86.54
2022-11-04T15:12:52.451Z,86.55
2022-11-04T15:16:18.663Z,86.32
2022-11-04T15:19:40.626Z,86.62
2022-11-04T15:23:05.065Z,86.78
2022-11-04T15:26:30.907Z,86.53
2022-11-04T15:29:56.944Z,87.08
2022-11-04T15:33:19.064Z,87.12
2022-11-04T15:36:43.877Z,87.22
2022-11-04T15:40:08.543Z,87.88
2022-11-04T15:43:32.005Z,87.80
2022-11-04T15:46:55.443Z,88.07
2022-11-04T15:50:23.936Z,88.35
2022-11-04T15:53:54.816Z,88.47
2022-11-04T15:57:20.201Z,88.68
2022-11-04T16:00:53.102Z,89.08
2022-11-04T16:04:16.515Z,89.24
2022-11-04T16:07:40.296Z,89.28
2022-11-04T16:11:17.511Z,89.56
2022-11-04T16:14:39.470Z,89.79
2022-11-04T16:18:03.134Z,89.92
2022-11-04T16:21:30.720Z,90.14
2022-11-04T16:24:54.761Z,89.93
2022-11-04T16:28:21.496Z,89.80
2022-11-04T16:31:43.453Z,90.26
2022-11-04T16:35:16.635Z,89.92
2022-11-04T16:38:38.498Z,90.03
2022-11-04T16:42:01.041Z,89.94
2022-11-04T16:45:27.467Z,89.36
2022-11-04T16:48:49.911Z,89.40
2022-11-04T16:52:16.850Z,89.30
2022-11-04T16:55:42.413Z,88.75
2022-11-04T16:59:04.370Z,87.36
2022-11-04T17:02:30.950Z,87.46
2022-11-04T17:05:56.517Z,86.92
2022-11-04T17:09:22.772Z,86.07
2022-11-04T17:12:45.776Z,85.96
2022-11-04T17:16:09.420Z,85.79
2022-11-04T17:19:34.579Z,85.53
2022-11-04T17:22:57.273Z,85.45
2022-11-04T17:26:20.522Z,85.60
2022-11-04T17:29:42.683Z,85.48
2022-11-04T17:33:06.816Z,85.35
2022-11-04T17:36:30.323Z,85.48
2022-11-04T17:39:52.345Z,85.77
2022-11-04T17:43:29.536Z,86.19
2022-11-04T17:46:51.414Z,85.94
2022-11-04T17:50:13.985Z,86.67
2022-11-04T17:53:35.909Z,86.83
2022-11-04T17:56:58.312Z,86.74
2022-11-04T18:00:24.431Z,87.51
2022-11-04T18:03:46.570Z,87.05
2022-11-04T18:07:08.479Z,87.37
2022-11-04T18:10:30.503Z,87.94
2022-11-04T18:13:52.696Z,88.20
2022-11-04T18:17:16.111Z,88.40
2022-11-04T18:20:38.198Z,88.58
2022-11-04T18:24:00.464Z,88.70
2022-11-04T18:27:22.694Z,88.82
2022-11-04T18:30:44.868Z,88.05
2022-11-04T18:34:11.558Z,87.62
2022-11-04T18:37:33.450Z,87.83
2022-11-04T18:40:55.467Z,88.18
2022-11-04T18:44:19.135Z,88.79
2022-11-04T18:47:41.414Z,88.76
2022-11-04T18:51:06.599Z,88.36
2022-11-04T18:54:28.779Z,89.50
2022-11-04T18:57:54.539Z,89.91
2022-11-04T19:01:20.290Z,90.45
2022-11-04T19:04:42.034Z,90.91
2022-11-04T19:08:05.253Z,91.04
2022-11-04T19:11:28.912Z,90.90
2022-11-04T19:14:51.099Z,91.30
2022-11-04T19:18:13.174Z,90.92
2022-11-04T19:21:36.575Z,91.57
2022-11-04T19:25:00.227Z,91.04
2022-11-04T19:28:47.788Z,91.58
2022-11-04T19:32:05.538Z,91.20
2022-11-04T19:35:30.323Z,91.37
2022-11-04T19:38:55.010Z,91.38
2022-11-04T19:42:35.619Z,91.56
2022-11-04T19:46:04.312Z,91.39
2022-11-04T19:49:31.229Z,91.86
2022-11-04T19:52:53.227Z,91.71
2022-11-04T19:56:16.794Z,91.91
2022-11-04T19:59:39.989Z,91.84
2022-11-04T20:03:01.974Z,91.40
2022-11-04T20:06:24.430Z,91.74
2022-11-04T20:09:46.582Z,91.96
2022-11-04T20:13:32.142Z,91.86
2022-11-04T20:16:55.824Z,91.92
2022-11-04T20:20:17.727Z,91.66
2022-11-04T20:23:39.864Z,91.88
2022-11-04T20:27:02.002Z,91.92
2022-11-04T20:30:24.204Z,91.98
2022-11-04T20:33:49.474Z,91.85
2022-11-04T20:37:12.664Z,91.97
2022-11-04T20:40:34.833Z,92.71
2022-11-04T20:43:57.055Z,92.85
2022-11-04T20:47:19.126Z,92.45
2022-11-04T20:50:42.396Z,92.82
2022-11-04T20:54:06.967Z,92.56
2022-11-04T20:57:28.842Z,92.92
2022-11-04T21:00:51.446Z,92.71
2022-11-04T21:04:18.319Z,92.82
2022-11-04T21:07:41.581Z,93.03
2022-11-04T21:11:04.753Z,92.92
2022-11-04T21:14:26.671Z,93.46
2022-11-04T21:17:49.542Z,92.82
2022-11-04T21:21:14.528Z,93.42
2022-11-04T21:24:39.354Z,92.95
2022-11-04T21:28:01.770Z,93.51
2022-11-04T21:31:25.131Z,92.93
2022-11-04T21:34:47.389Z,93.44
2022-11-04T21:38:11.342Z,92.84
2022-11-04T21:41:37.423Z,92.64
2022-11-04T21:44:59.359Z,92.41
2022-11-04T21:48:21.561Z,93.17
2022-11-04T21:51:43.635Z,92.51
2022-11-04T21:55:06.372Z,92.09
2022-11-04T21:58:30.333Z,92.36
2022-11-04T22:01:52.727Z,92.75
2022-11-04T22:05:15.666Z,91.80
2022-11-04T22:08:38.198Z,91.01
2022-11-04T22:12:00.233Z,90.68
2022-11-04T22:15:37.604Z,90.45
2022-11-04T22:19:01.676Z,90.75
2022-11-04T22:22:23.754Z,90.89
2022-11-04T22:25:49.917Z,90.33
2022-11-04T22:29:12.603Z,90.70
2022-11-04T22:32:36.173Z,89.43
2022-11-04T22:35:57.949Z,88.54
2022-11-04T22:39:20.671Z,87.81
2022-11-04T22:42:43.780Z,87.76
2022-11-04T22:46:08.184Z,86.08
2022-11-04T22:49:31.627Z,84.89
2022-11-04T22:52:53.504Z,84.67
2022-11-04T22:56:15.986Z,85.41
2022-11-04T22:59:37.814Z,84.98
2022-11-04T23:02:59.832Z,85.00
2022-11-04T23:06:23.529Z,84.89
2022-11-04T23:09:59.164Z,85.65
2022-11-04T23:13:38.832Z,85.33
2022-11-04T23:17:18.574Z,84.75
2022-11-04T23:20:40.616Z,83.63
2022-11-04T23:24:21.485Z,84.66
2022-11-04T23:28:03.622Z,84.83
2022-11-04T23:31:25.491Z,84.94
2022-11-04T23:35:04.693Z,85.39
2022-11-04T23:38:28.566Z,85.59
2022-11-04T23:42:08.368Z,85.78
2022-11-04T23:45:48.125Z,85.89
2022-11-04T23:49:28.629Z,85.23
2022-11-04T23:53:08.553Z,85.43
2022-11-04T23:56:48.592Z,84.63
